Time;durP1;ratioP1;P1;durP2;ratioP2;P2;SDS_P1;SDS_P2;PMS_P1;PMS_P2;Temp;Humidity;BMP_temperature;BMP_pressure;BME280_temperature;BME280_humidity;BME280_pressure;Samples;Min_cycle;Max_cycle;Signal;HPM_P1;HPM_P2
2021/12/19 00:01:23;;;;;;;5.97;2.05;;;;;;;;;;5063147;28;20067;-75
2021/12/19 00:04:02;;;;;;;4.43;2.08;;;;;;;;;;5079550;28;20044;-75
2021/12/19 00:09:13;;;;;;;7.95;2.33;;;;;;;;;;5087939;28;20048;-74
2021/12/19 00:11:39;;;;;;;6.43;2.35;;;;;;;;;;5080160;28;20515;-75
2021/12/19 00:14:06;;;;;;;6.05;2.60;;;;;;;;;;5060231;28;20550;-74
2021/12/19 00:16:32;;;;;;;5.88;2.58;;;;;;;;;;5079221;28;20045;-76
2021/12/19 00:18:59;;;;;;;6.90;2.90;;;;;;;;;;5077769;28;20037;-77
2021/12/19 00:21:28;;;;;;;5.32;2.53;;;;;;;;;;5079291;28;20109;-76
2021/12/19 00:23:54;;;;;;;6.15;2.67;;;;;;;;;;5079370;28;20036;-76
2021/12/19 00:26:20;;;;;;;6.75;2.22;;;;;;;;;;5060652;28;20032;-75
2021/12/19 00:28:47;;;;;;;5.22;2.30;;;;;;;;;;5079101;28;20032;-76
2021/12/19 00:31:14;;;;;;;5.38;1.83;;;;;;;;;;5062474;28;20479;-76
2021/12/19 00:33:40;;;;;;;5.75;2.35;;;;;;;;;;5077535;28;20044;-76
2021/12/19 00:36:07;;;;;;;7.05;2.42;;;;;;;;;;5078496;28;20407;-74
2021/12/19 00:38:33;;;;;;;6.75;2.42;;;;;;;;;;5078545;28;20098;-75
2021/12/19 00:40:59;;;;;;;8.50;3.00;;;;;;;;;;5076628;28;20040;-76
2021/12/19 00:43:36;;;;;;;6.63;3.22;;;;;;;;;;5078348;28;20036;-75
2021/12/19 00:46:07;;;;;;;6.13;2.83;;;;;;;;;;5094722;28;20044;-77
2021/12/19 00:48:34;;;;;;;6.68;2.35;;;;;;;;;;5077921;28;20067;-77
2021/12/19 00:51:00;;;;;;;8.13;4.40;;;;;;;;;;5062611;28;20036;-76
2021/12/19 00:53:26;;;;;;;8.32;3.40;;;;;;;;;;5062297;28;20048;-75
2021/12/19 00:55:52;;;;;;;7.00;2.88;;;;;;;;;;5078369;28;20050;-75
2021/12/19 00:58:18;;;;;;;8.20;3.83;;;;;;;;;;5062486;28;20040;-76
2021/12/19 01:00:44;;;;;;;7.75;3.33;;;;;;;;;;5077864;28;20089;-75
2021/12/19 01:03:10;;;;;;;14.65;4.18;;;;;;;;;;5078324;28;20036;-76
2021/12/19 01:05:37;;;;;;;8.05;3.30;;;;;;;;;;5079836;28;20389;-75
2021/12/19 01:08:05;;;;;;;11.32;4.05;;;;;;;;;;5079045;28;20028;-77
2021/12/19 01:10:31;;;;;;;9.43;4.00;;;;;;;;;;5046514;28;20044;-76
2021/12/19 01:12:57;;;;;;;6.65;2.45;;;;;;;;;;5076998;28;20040;-75
2021/12/19 01:15:23;;;;;;;6.82;2.45;;;;;;;;;;5080584;28;20047;-73
2021/12/19 01:17:49;;;;;;;4.88;2.15;;;;;;;;;;5064663;28;20082;-76
2021/12/19 01:20:18;;;;;;;6.45;2.10;;;;;;;;;;5077317;28;20048;-76
2021/12/19 01:22:45;;;;;;;2.70;1.42;;;;;;;;;;5081595;28;20051;-78
2021/12/19 01:25:11;;;;;;;5.80;1.20;;;;;;;;;;5079467;28;20043;-74
2021/12/19 01:27:37;;;;;;;3.60;1.17;;;;;;;;;;5062271;28;20043;-75
2021/12/19 01:30:04;;;;;;;3.13;1.23;;;;;;;;;;5077796;28;20438;-76
2021/12/19 01:32:30;;;;;;;2.78;0.95;;;;;;;;;;5078213;28;20044;-74
2021/12/19 01:34:56;;;;;;;3.85;0.85;;;;;;;;;;5080428;28;20488;-75
2021/12/19 01:37:22;;;;;;;2.63;0.80;;;;;;;;;;5060783;28;20370;-76
2021/12/19 01:39:48;;;;;;;5.22;1.15;;;;;;;;;;5078409;28;20100;-75
2021/12/19 01:42:14;;;;;;;3.65;1.17;;;;;;;;;;5078538;28;20043;-75
2021/12/19 01:44:41;;;;;;;2.78;1.08;;;;;;;;;;5077110;28;20093;-75
2021/12/19 01:47:07;;;;;;;4.53;1.00;;;;;;;;;;5080415;28;20040;-74
2021/12/19 01:49:33;;;;;;;2.13;0.98;;;;;;;;;;5077053;28;20507;-75
2021/12/19 01:51:59;;;;;;;3.20;0.63;;;;;;;;;;5066287;28;20031;-75
2021/12/19 01:54:25;;;;;;;2.35;0.95;;;;;;;;;;5082746;28;20054;-74
2021/12/19 01:56:52;;;;;;;0.82;0.50;;;;;;;;;;5081540;28;20044;-74
2021/12/19 01:59:18;;;;;;;0.52;0.22;;;;;;;;;;5066816;28;20039;-74
2021/12/19 02:01:45;;;;;;;3.35;0.50;;;;;;;;;;5081022;28;20499;-73
2021/12/19 02:04:12;;;;;;;0.70;0.40;;;;;;;;;;5080845;28;20487;-73
2021/12/19 02:06:38;;;;;;;0.95;0.40;;;;;;;;;;5080639;28;20032;-76
2021/12/19 02:09:06;;;;;;;1.38;0.50;;;;;;;;;;5082006;28;20516;-75
2021/12/19 02:11:33;;;;;;;1.05;0.60;;;;;;;;;;5081544;28;20456;-76
2021/12/19 02:13:59;;;;;;;1.48;0.57;;;;;;;;;;5080316;28;20396;-74
2021/12/19 02:16:25;;;;;;;2.33;0.70;;;;;;;;;;5081547;28;20137;-75
2021/12/19 02:18:51;;;;;;;1.65;0.77;;;;;;;;;;5080376;28;20131;-76
2021/12/19 02:21:18;;;;;;;1.38;0.60;;;;;;;;;;5081668;28;20127;-75
2021/12/19 02:23:44;;;;;;;2.40;0.93;;;;;;;;;;5080067;28;20100;-73
2021/12/19 02:26:10;;;;;;;4.00;0.65;;;;;;;;;;5080885;28;20561;-74
2021/12/19 02:28:36;;;;;;;2.85;0.80;;;;;;;;;;5083290;28;20044;-76
2021/12/19 02:31:02;;;;;;;3.75;0.82;;;;;;;;;;5080622;28;20047;-77
2021/12/19 02:33:31;;;;;;;1.42;0.52;;;;;;;;;;5081521;28;20044;-78
2021/12/19 02:36:26;;;;;;;8.93;0.60;;;;;;;;;;5063402;28;20072;-69
2021/12/19 02:49:30;;;;;;;2.53;0.68;;;;;;;;;;5099472;28;20052;-73
2021/12/19 02:51:56;;;;;;;2.47;0.80;;;;;;;;;;5079944;28;20060;-75
2021/12/19 02:54:23;;;;;;;1.20;0.60;;;;;;;;;;5081213;28;20040;-75
2021/12/19 02:56:49;;;;;;;1.98;1.10;;;;;;;;;;5063965;28;20602;-76
2021/12/19 02:59:16;;;;;;;2.40;1.13;;;;;;;;;;5079753;28;20042;-76
2021/12/19 03:01:44;;;;;;;1.40;0.80;;;;;;;;;;5064660;28;20060;-75
2021/12/19 03:04:10;;;;;;;3.17;0.50;;;;;;;;;;5080900;28;20031;-74
2021/12/19 03:06:36;;;;;;;1.17;0.70;;;;;;;;;;5065445;28;20114;-76
2021/12/19 03:09:07;;;;;;;0.57;0.40;;;;;;;;;;5063748;28;20123;-76
2021/12/19 03:12:05;;;;;;;;;;;;;;;;;;5080994;28;20044;-75
2021/12/19 03:20:00;;;;;;;2.15;0.50;;;;;;;;;;5082271;28;20048;-74
2021/12/19 03:22:26;;;;;;;0.50;0.32;;;;;;;;;;5081045;28;20465;-73
2021/12/19 03:24:52;;;;;;;1.52;0.75;;;;;;;;;;5072147;28;20079;-73
2021/12/19 03:27:18;;;;;;;2.30;0.63;;;;;;;;;;5054684;28;20086;-75
2021/12/19 03:29:44;;;;;;;0.35;0.20;;;;;;;;;;5054232;28;20037;-74
2021/12/19 03:32:10;;;;;;;1.70;0.60;;;;;;;;;;5054086;28;20412;-76
2021/12/19 03:34:36;;;;;;;2.33;0.70;;;;;;;;;;5070468;28;20037;-77
2021/12/19 03:37:03;;;;;;;1.35;0.45;;;;;;;;;;5071108;28;20048;-76
2021/12/19 03:39:55;;;;;;;0.60;0.30;;;;;;;;;;5071927;28;20094;-76
2021/12/19 03:42:22;;;;;;;1.38;0.50;;;;;;;;;;5071034;28;20169;-76
2021/12/19 03:44:48;;;;;;;2.10;0.90;;;;;;;;;;5054593;28;20127;-77
2021/12/19 03:47:14;;;;;;;1.25;0.40;;;;;;;;;;5078905;28;20169;-73
2021/12/19 03:49:40;;;;;;;1.25;0.40;;;;;;;;;;5090501;28;20032;-79
2021/12/19 03:52:06;;;;;;;1.13;0.50;;;;;;;;;;5090636;28;20040;-72
2021/12/19 03:54:32;;;;;;;2.30;1.27;;;;;;;;;;5073236;28;20051;-70
2021/12/19 03:56:58;;;;;;;2.58;0.73;;;;;;;;;;5090413;28;20450;-73
2021/12/19 03:59:26;;;;;;;0.98;0.40;;;;;;;;;;5073859;28;20048;-76
2021/12/19 04:01:53;;;;;;;0.52;0.20;;;;;;;;;;5090417;28;20400;-75
2021/12/19 04:04:19;;;;;;;1.38;0.50;;;;;;;;;;5090190;28;20403;-74
2021/12/19 04:06:45;;;;;;;1.45;0.60;;;;;;;;;;5073396;28;20070;-76
2021/12/19 04:09:11;;;;;;;1.17;0.45;;;;;;;;;;5072835;28;20476;-74
2021/12/19 04:11:37;;;;;;;1.95;0.57;;;;;;;;;;5072906;28;20044;-74
2021/12/19 04:14:03;;;;;;;1.65;0.40;;;;;;;;;;5089386;28;20048;-73
2021/12/19 04:16:29;;;;;;;1.30;0.60;;;;;;;;;;5090325;28;20389;-74
2021/12/19 04:18:55;;;;;;;1.58;0.47;;;;;;;;;;5093035;28;20044;-75
2021/12/19 04:21:21;;;;;;;2.80;1.10;;;;;;;;;;5093255;28;20081;-75
2021/12/19 04:23:47;;;;;;;1.25;0.65;;;;;;;;;;5110382;28;20031;-75
2021/12/19 04:26:13;;;;;;;6.82;0.80;;;;;;;;;;5109676;28;20075;-75
2021/12/19 04:28:39;;;;;;;1.10;0.70;;;;;;;;;;5093213;28;20082;-74
2021/12/19 04:31:05;;;;;;;7.78;1.00;;;;;;;;;;5110096;28;20039;-74
2021/12/19 04:33:32;;;;;;;1.33;1.00;;;;;;;;;;5093248;28;20082;-74
2021/12/19 04:36:01;;;;;;;3.28;1.15;;;;;;;;;;5109838;28;20047;-71
2021/12/19 04:39:09;;;;;;;3.70;1.23;;;;;;;;;;5109558;28;20085;-74
2021/12/19 04:57:49;;;;;;;5.65;1.95;;;;;;;;;;5109116;28;20054;-74
2021/12/19 05:00:20;;;;;;;4.47;1.63;;;;;;;;;;5092253;28;20043;-73
2021/12/19 05:03:15;;;;;;;8.55;2.20;;;;;;;;;;5108995;28;20052;-74
2021/12/19 05:16:35;;;;;;;5.70;2.50;;;;;;;;;;5108654;28;20047;-74
2021/12/19 05:19:07;;;;;;;5.15;2.33;;;;;;;;;;5108855;28;20097;-73
2021/12/19 05:21:36;;;;;;;9.88;2.80;;;;;;;;;;5108773;28;20047;-73
2021/12/19 05:24:19;;;;;;;10.35;2.70;;;;;;;;;;5108535;28;20047;-74
2021/12/19 05:26:45;;;;;;;9.95;3.22;;;;;;;;;;5107974;28;20047;-74
2021/12/19 05:29:12;;;;;;;9.85;3.13;;;;;;;;;;5108826;28;20051;-76
2021/12/19 05:31:38;;;;;;;6.32;3.17;;;;;;;;;;5108670;28;20082;-73
2021/12/19 05:34:04;;;;;;;7.07;2.63;;;;;;;;;;5108666;28;20083;-74
2021/12/19 05:47:19;;;;;;;9.50;2.90;;;;;;;;;;5108207;28;20415;-74
2021/12/19 05:49:45;;;;;;;8.23;3.70;;;;;;;;;;5108430;28;20063;-74
2021/12/19 05:52:12;;;;;;;11.35;3.78;;;;;;;;;;5091288;28;20039;-74
2021/12/19 05:54:38;;;;;;;8.98;3.70;;;;;;;;;;5091741;28;20154;-74
2021/12/19 05:57:04;;;;;;;11.98;3.58;;;;;;;;;;5091760;28;20134;-73
2021/12/19 05:59:30;;;;;;;12.93;3.45;;;;;;;;;;5108318;28;20418;-74
2021/12/19 06:01:56;;;;;;;7.05;2.88;;;;;;;;;;5107911;28;20059;-74
2021/12/19 06:04:22;;;;;;;14.43;4.00;;;;;;;;;;5108032;28;20109;-73
2021/12/19 06:06:48;;;;;;;17.27;4.07;;;;;;;;;;5108473;28;20032;-74
2021/12/19 06:09:14;;;;;;;11.57;4.45;;;;;;;;;;5108350;28;20491;-74
2021/12/19 06:11:40;;;;;;;14.85;4.68;;;;;;;;;;5091665;28;20043;-74
2021/12/19 06:14:06;;;;;;;9.90;4.28;;;;;;;;;;5108024;28;20043;-74
2021/12/19 06:16:32;;;;;;;14.13;5.35;;;;;;;;;;5091087;28;20556;-74
2021/12/19 06:18:58;;;;;;;14.55;3.90;;;;;;;;;;5108178;28;20376;-74
2021/12/19 06:21:24;;;;;;;11.27;4.38;;;;;;;;;;5107853;28;20075;-74
2021/12/19 06:23:50;;;;;;;12.85;4.72;;;;;;;;;;5108408;28;20552;-70
2021/12/19 06:26:16;;;;;;;13.02;4.00;;;;;;;;;;5091280;28;20451;-73
2021/12/19 06:28:42;;;;;;;13.98;4.47;;;;;;;;;;5108167;28;20480;-74
2021/12/19 06:31:08;;;;;;;11.40;3.88;;;;;;;;;;5108502;28;20042;-74
2021/12/19 06:33:34;;;;;;;12.93;3.70;;;;;;;;;;5091232;28;20043;-74
2021/12/19 06:36:00;;;;;;;10.23;3.80;;;;;;;;;;5108113;28;20047;-75
2021/12/19 06:38:26;;;;;;;10.60;2.75;;;;;;;;;;5110422;28;20044;-75
2021/12/19 06:40:53;;;;;;;11.18;2.80;;;;;;;;;;5103775;28;20070;-75
2021/12/19 06:43:19;;;;;;;12.88;3.47;;;;;;;;;;5054274;28;20033;-73
2021/12/19 06:45:45;;;;;;;13.93;3.38;;;;;;;;;;5054222;28;20499;-77
2021/12/19 06:48:11;;;;;;;10.57;3.53;;;;;;;;;;5070777;28;20036;-74
2021/12/19 06:50:37;;;;;;;9.10;2.72;;;;;;;;;;5070726;28;20044;-74
2021/12/19 06:53:03;;;;;;;12.07;3.50;;;;;;;;;;5071035;28;20040;-74
2021/12/19 06:55:29;;;;;;;9.57;3.72;;;;;;;;;;5054471;28;20037;-75
2021/12/19 06:57:55;;;;;;;9.27;3.38;;;;;;;;;;5071018;28;20036;-74
2021/12/19 07:00:23;;;;;;;11.23;3.58;;;;;;;;;;5070924;28;20036;-72
2021/12/19 07:02:49;;;;;;;8.02;3.05;;;;;;;;;;5070567;28;20093;-75
2021/12/19 07:05:15;;;;;;;12.68;3.20;;;;;;;;;;5054045;28;20040;-73
2021/12/19 07:07:41;;;;;;;5.47;2.40;;;;;;;;;;5070675;28;20040;-74
2021/12/19 07:10:08;;;;;;;7.97;2.90;;;;;;;;;;5070822;28;20404;-74
2021/12/19 07:12:34;;;;;;;9.52;2.90;;;;;;;;;;5053824;28;20044;-73
2021/12/19 07:15:00;;;;;;;8.40;3.03;;;;;;;;;;5072175;28;20075;-74
2021/12/19 07:17:26;;;;;;;11.52;3.25;;;;;;;;;;5094321;28;20486;-74
2021/12/19 07:19:52;;;;;;;10.52;2.63;;;;;;;;;;5111071;28;20051;-75
2021/12/19 07:22:19;;;;;;;6.10;2.20;;;;;;;;;;5093772;28;20161;-76
2021/12/19 07:24:48;;;;;;;6.97;2.15;;;;;;;;;;5094137;28;20487;-74
2021/12/19 07:27:14;;;;;;;4.63;2.00;;;;;;;;;;5093739;28;20071;-74
2021/12/19 07:29:40;;;;;;;7.60;2.20;;;;;;;;;;5110709;28;20035;-74
2021/12/19 07:32:06;;;;;;;6.22;2.42;;;;;;;;;;5077304;28;20079;-74
2021/12/19 07:34:35;;;;;;;15.20;3.15;;;;;;;;;;5087600;28;20040;-74
2021/12/19 07:37:01;;;;;;;14.05;2.75;;;;;;;;;;5091872;28;20040;-73
2021/12/19 07:42:04;;;;;;;11.95;2.33;;;;;;;;;;5091518;28;20052;-75
2021/12/19 07:44:30;;;;;;;10.98;2.83;;;;;;;;;;5091240;28;20129;-75
2021/12/19 07:46:56;;;;;;;9.07;2.10;;;;;;;;;;5091809;28;20559;-75
2021/12/19 07:49:22;;;;;;;4.75;1.85;;;;;;;;;;5091143;28;20044;-75
2021/12/19 07:51:48;;;;;;;12.27;2.35;;;;;;;;;;5091798;28;20570;-75
2021/12/19 07:54:14;;;;;;;4.65;1.67;;;;;;;;;;5091419;28;20054;-74
2021/12/19 07:56:40;;;;;;;8.68;1.90;;;;;;;;;;5091634;28;20459;-74
2021/12/19 07:59:06;;;;;;;7.18;2.22;;;;;;;;;;5091350;28;20070;-74
2021/12/19 08:01:32;;;;;;;9.25;2.30;;;;;;;;;;5091347;28;20067;-75
2021/12/19 08:03:58;;;;;;;7.25;1.98;;;;;;;;;;5090657;28;20040;-75
2021/12/19 08:06:25;;;;;;;7.65;2.35;;;;;;;;;;5091033;28;20403;-75
2021/12/19 08:08:54;;;;;;;8.63;2.22;;;;;;;;;;5090979;28;20511;-74
2021/12/19 08:14:05;;;;;;;4.30;1.80;;;;;;;;;;5108802;28;20499;-75
2021/12/19 08:16:31;;;;;;;10.20;2.05;;;;;;;;;;5091331;28;20052;-75
2021/12/19 08:18:57;;;;;;;7.43;1.95;;;;;;;;;;5091358;28;20396;-75
2021/12/19 08:21:23;;;;;;;6.22;2.30;;;;;;;;;;5091355;28;20047;-74
2021/12/19 08:23:49;;;;;;;5.55;1.98;;;;;;;;;;5091164;28;20079;-74
2021/12/19 08:26:15;;;;;;;7.18;2.17;;;;;;;;;;5091359;28;20043;-75
2021/12/19 08:28:41;;;;;;;7.65;1.92;;;;;;;;;;5091631;28;20040;-77
2021/12/19 08:31:08;;;;;;;6.43;2.05;;;;;;;;;;5086089;28;20163;-76
2021/12/19 08:33:34;;;;;;;8.30;1.77;;;;;;;;;;5076725;28;20036;-75
2021/12/19 08:36:00;;;;;;;9.35;2.03;;;;;;;;;;5079485;28;20098;-75
2021/12/19 08:38:26;;;;;;;7.32;1.92;;;;;;;;;;5075853;28;20416;-75
2021/12/19 08:40:52;;;;;;;6.95;1.60;;;;;;;;;;5077192;28;20039;-76
2021/12/19 08:43:19;;;;;;;7.68;2.55;;;;;;;;;;5075303;28;20056;-75
2021/12/19 08:45:45;;;;;;;7.13;2.00;;;;;;;;;;5075806;28;20075;-75
2021/12/19 08:48:12;;;;;;;4.55;1.70;;;;;;;;;;5076722;28;20435;-74
2021/12/19 08:50:38;;;;;;;7.47;1.52;;;;;;;;;;5074697;28;20032;-75
2021/12/19 08:53:04;;;;;;;9.60;1.75;;;;;;;;;;5075665;28;20604;-75
2021/12/19 08:55:30;;;;;;;8.32;1.85;;;;;;;;;;5076536;28;20490;-75
2021/12/19 08:57:56;;;;;;;8.52;2.00;;;;;;;;;;5077198;28;20083;-76
2021/12/19 09:00:22;;;;;;;10.43;1.70;;;;;;;;;;5074648;28;20516;-75
2021/12/19 09:02:51;;;;;;;7.25;1.55;;;;;;;;;;5069059;28;20048;-74
2021/12/19 09:05:18;;;;;;;6.97;1.92;;;;;;;;;;5076847;28;20040;-75
2021/12/19 09:07:44;;;;;;;7.43;1.52;;;;;;;;;;5069997;28;20083;-75
2021/12/19 09:10:11;;;;;;;4.68;1.83;;;;;;;;;;5069918;28;20499;-74
2021/12/19 09:12:37;;;;;;;8.00;1.63;;;;;;;;;;5069686;28;20072;-75
2021/12/19 09:15:04;;;;;;;7.43;1.75;;;;;;;;;;5086742;28;20406;-75
2021/12/19 09:17:31;;;;;;;7.35;2.45;;;;;;;;;;5086759;28;20411;-75
2021/12/19 09:19:57;;;;;;;7.57;1.73;;;;;;;;;;5069860;28;20116;-75
2021/12/19 09:22:23;;;;;;;10.93;2.35;;;;;;;;;;5069719;28;20040;-75
2021/12/19 09:24:48;;;;;;;7.13;1.55;;;;;;;;;;5069282;28;20043;-76
2021/12/19 09:27:15;;;;;;;8.70;2.08;;;;;;;;;;5086925;28;20040;-75
2021/12/19 09:29:42;;;;;;;11.38;1.75;;;;;;;;;;5069945;28;20267;-76
2021/12/19 09:32:08;;;;;;;5.80;1.83;;;;;;;;;;5086549;28;20079;-75
2021/12/19 09:34:34;;;;;;;6.80;1.77;;;;;;;;;;5090888;28;20432;-75
2021/12/19 09:37:00;;;;;;;12.82;2.60;;;;;;;;;;5089490;28;20124;-75
2021/12/19 09:39:26;;;;;;;8.07;1.88;;;;;;;;;;5107303;28;20391;-73
2021/12/19 09:41:54;;;;;;;8.70;2.03;;;;;;;;;;5106669;28;20040;-75
2021/12/19 09:44:20;;;;;;;6.93;1.85;;;;;;;;;;5090079;28;20053;-73
2021/12/19 09:46:47;;;;;;;11.73;2.15;;;;;;;;;;5075296;28;20067;-75
2021/12/19 09:49:15;;;;;;;11.25;2.22;;;;;;;;;;5075542;28;20036;-74
2021/12/19 09:51:41;;;;;;;14.90;2.35;;;;;;;;;;5074093;28;20120;-73
2021/12/19 09:54:08;;;;;;;10.88;2.03;;;;;;;;;;5075451;28;20039;-75
2021/12/19 09:56:35;;;;;;;8.45;1.60;;;;;;;;;;5076037;28;20432;-75
2021/12/19 09:59:01;;;;;;;6.70;1.75;;;;;;;;;;5074247;28;20040;-75
2021/12/19 10:01:27;;;;;;;5.00;1.13;;;;;;;;;;5073521;28;20633;-74
2021/12/19 10:03:54;;;;;;;8.70;2.13;;;;;;;;;;5075128;28;20140;-74
2021/12/19 10:06:24;;;;;;;7.80;1.80;;;;;;;;;;5075907;28;20032;-73
2021/12/19 10:09:07;;;;;;;4.70;1.20;;;;;;;;;;5075399;28;20434;-75
2021/12/19 10:11:46;;;;;;;7.82;1.55;;;;;;;;;;5092991;28;20051;-76
2021/12/19 10:14:29;;;;;;;8.43;2.83;;;;;;;;;;5081037;28;20049;-74
2021/12/19 10:16:55;;;;;;;4.68;1.13;;;;;;;;;;5097674;28;20700;-75
2021/12/19 10:19:22;;;;;;;6.35;1.30;;;;;;;;;;5079202;28;20127;-73
2021/12/19 10:21:48;;;;;;;6.07;1.48;;;;;;;;;;5079282;28;20123;-75
2021/12/19 10:24:30;;;;;;;13.30;1.88;;;;;;;;;;5080304;28;20506;-75
2021/12/19 10:26:58;;;;;;;10.02;1.60;;;;;;;;;;5081165;28;20043;-73
2021/12/19 10:29:41;;;;;;;14.50;2.05;;;;;;;;;;5079452;28;20440;-71
2021/12/19 10:32:07;;;;;;;7.63;2.88;;;;;;;;;;5096775;28;20040;-74
2021/12/19 10:34:33;;;;;;;6.80;1.63;;;;;;;;;;5080006;28;20047;-75
2021/12/19 10:36:59;;;;;;;12.23;2.22;;;;;;;;;;5079230;28;20365;-73
2021/12/19 10:39:34;;;;;;;7.88;1.83;;;;;;;;;;5079088;28;20052;-75
2021/12/19 10:42:01;;;;;;;8.80;1.50;;;;;;;;;;5089428;28;20487;-74
2021/12/19 10:47:20;;;;;;;5.63;1.38;;;;;;;;;;5087680;28;20040;-73
2021/12/19 10:49:46;;;;;;;8.77;1.85;;;;;;;;;;5078517;28;20044;-75
2021/12/19 10:52:12;;;;;;;10.38;1.60;;;;;;;;;;5075770;28;20041;-74
2021/12/19 10:54:56;;;;;;;6.90;1.60;;;;;;;;;;5075203;28;20046;-74
2021/12/19 10:57:30;;;;;;;8.18;2.15;;;;;;;;;;5095105;28;20040;-74
2021/12/19 10:59:56;;;;;;;4.13;1.50;;;;;;;;;;5077855;28;20036;-77
2021/12/19 11:02:35;;;;;;;5.43;1.70;;;;;;;;;;5078893;28;20139;-75
2021/12/19 11:05:01;;;;;;;5.80;1.15;;;;;;;;;;5085293;28;20052;-73
2021/12/19 11:07:27;;;;;;;10.88;1.98;;;;;;;;;;5079712;28;20085;-75
2021/12/19 11:09:53;;;;;;;6.78;1.00;;;;;;;;;;5078983;28;20048;-76
2021/12/19 11:12:19;;;;;;;6.57;1.40;;;;;;;;;;5078360;28;20040;-75
2021/12/19 11:14:48;;;;;;;6.03;1.30;;;;;;;;;;5077647;28;20037;-73
2021/12/19 11:17:20;;;;;;;7.13;1.55;;;;;;;;;;5076903;28;20040;-74
2021/12/19 11:19:46;;;;;;;6.40;1.27;;;;;;;;;;5077710;28;20044;-75
2021/12/19 11:22:13;;;;;;;10.02;1.65;;;;;;;;;;5078420;28;20037;-73
2021/12/19 11:24:39;;;;;;;6.93;1.20;;;;;;;;;;5078401;28;20399;-72
2021/12/19 11:27:07;;;;;;;6.22;1.08;;;;;;;;;;5088865;28;20040;-74
2021/12/19 11:29:33;;;;;;;6.15;1.70;;;;;;;;;;5089967;28;20054;-77
2021/12/19 11:32:03;;;;;;;5.68;1.83;;;;;;;;;;5089288;28;20051;-75
2021/12/19 11:34:44;;;;;;;6.53;1.00;;;;;;;;;;5082780;28;20821;-72
2021/12/19 11:37:12;;;;;;;8.07;1.10;;;;;;;;;;5069029;28;20115;-79
2021/12/19 11:39:41;;;;;;;5.07;1.45;;;;;;;;;;5070202;28;20087;-74
2021/12/19 11:42:14;;;;;;;6.15;1.25;;;;;;;;;;5068859;28;20044;-74
2021/12/19 11:47:36;;;;;;;8.05;1.95;;;;;;;;;;5085057;28;20446;-74
2021/12/19 11:50:21;;;;;;;9.77;1.88;;;;;;;;;;5067901;28;20040;-73
2021/12/19 11:52:48;;;;;;;5.15;1.58;;;;;;;;;;5068845;28;20048;-74
2021/12/19 11:55:14;;;;;;;7.68;1.30;;;;;;;;;;5068030;28;20047;-75
2021/12/19 11:57:44;;;;;;;6.15;1.02;;;;;;;;;;5066741;28;20044;-75
2021/12/19 12:00:25;;;;;;;6.70;1.30;;;;;;;;;;5068285;28;20166;-74
2021/12/19 12:03:11;;;;;;;5.88;2.13;;;;;;;;;;5067424;28;20531;-75
2021/12/19 12:05:38;;;;;;;5.72;1.30;;;;;;;;;;5067935;28;20048;-75
2021/12/19 12:08:08;;;;;;;10.20;2.13;;;;;;;;;;5067573;28;20047;-74
2021/12/19 12:10:49;;;;;;;15.45;2.28;;;;;;;;;;5068093;28;20470;-76
2021/12/19 12:13:26;;;;;;;10.48;1.98;;;;;;;;;;5067825;28;20442;-74
2021/12/19 12:16:00;;;;;;;9.55;1.67;;;;;;;;;;5068153;28;20041;-75
2021/12/19 12:18:34;;;;;;;6.38;1.52;;;;;;;;;;5068006;28;20109;-73
2021/12/19 12:21:19;;;;;;;10.98;3.05;;;;;;;;;;5067401;28;20075;-75
2021/12/19 12:23:53;;;;;;;12.77;1.80;;;;;;;;;;5067585;28;20041;-75
2021/12/19 12:26:27;;;;;;;20.67;1.70;;;;;;;;;;5067430;28;20413;-74
2021/12/19 12:28:53;;;;;;;10.80;1.60;;;;;;;;;;5067029;28;20511;-74
2021/12/19 12:31:20;;;;;;;5.07;1.77;;;;;;;;;;5067380;28;20127;-75
2021/12/19 12:33:46;;;;;;;9.27;1.75;;;;;;;;;;5067168;28;20102;-74
2021/12/19 12:36:12;;;;;;;10.10;2.05;;;;;;;;;;5067754;28;20044;-75
2021/12/19 12:38:38;;;;;;;7.25;1.65;;;;;;;;;;5081659;28;20040;-75
2021/12/19 12:41:10;;;;;;;9.13;1.73;;;;;;;;;;5087884;28;20105;-75
2021/12/19 12:43:39;;;;;;;9.15;1.88;;;;;;;;;;5086828;28;20138;-74
2021/12/19 12:46:06;;;;;;;15.18;1.88;;;;;;;;;;5087280;28;20134;-73
2021/12/19 12:48:54;;;;;;;8.18;1.33;;;;;;;;;;5087031;28;20050;-74
2021/12/19 12:51:31;;;;;;;8.70;2.70;;;;;;;;;;5087549;28;20484;-76
2021/12/19 12:53:59;;;;;;;7.30;1.70;;;;;;;;;;5087118;28;20097;-73
2021/12/19 12:56:41;;;;;;;8.65;1.50;;;;;;;;;;5074790;28;20044;-73
2021/12/19 12:59:07;;;;;;;7.55;1.20;;;;;;;;;;5067215;28;20052;-75
2021/12/19 13:01:37;;;;;;;15.93;2.08;;;;;;;;;;5066665;28;20060;-74
2021/12/19 13:04:20;;;;;;;16.33;2.70;;;;;;;;;;5066906;28;20048;-75
2021/12/19 13:06:53;;;;;;;9.77;1.80;;;;;;;;;;5050122;28;20055;-74
2021/12/19 13:09:38;;;;;;;16.60;1.92;;;;;;;;;;5066672;28;20051;-74
2021/12/19 13:12:07;;;;;;;11.60;2.08;;;;;;;;;;5072382;28;20043;-75
2021/12/19 13:14:35;;;;;;;8.98;2.10;;;;;;;;;;5077249;28;20082;-75
2021/12/19 13:17:03;;;;;;;6.88;1.65;;;;;;;;;;5077037;28;20073;-74
2021/12/19 13:19:45;;;;;;;11.82;2.15;;;;;;;;;;5085278;28;20031;-74
2021/12/19 13:22:13;;;;;;;6.72;1.65;;;;;;;;;;5076453;28;20957;-73
2021/12/19 13:24:40;;;;;;;13.68;1.92;;;;;;;;;;5073706;28;20043;-75
2021/12/19 13:27:12;;;;;;;6.78;1.60;;;;;;;;;;5076337;28;20385;-74
2021/12/19 13:29:39;;;;;;;8.65;2.05;;;;;;;;;;5075410;28;20328;-74
2021/12/19 13:32:26;;;;;;;13.73;1.67;;;;;;;;;;5080282;28;20062;-76
2021/12/19 13:34:52;;;;;;;6.72;1.35;;;;;;;;;;5087652;28;20044;-75
2021/12/19 13:37:18;;;;;;;8.80;1.98;;;;;;;;;;5087243;28;20051;-74
2021/12/19 13:39:49;;;;;;;10.52;1.48;;;;;;;;;;5079391;28;20059;-74
2021/12/19 13:42:16;;;;;;;6.50;1.10;;;;;;;;;;5078025;28;20039;-74
2021/12/19 13:44:42;;;;;;;5.25;1.48;;;;;;;;;;5076844;28;20127;-75
2021/12/19 13:47:10;;;;;;;10.95;2.25;;;;;;;;;;5078924;28;20037;-76
2021/12/19 13:49:36;;;;;;;8.52;1.42;;;;;;;;;;5082730;28;20047;-76
2021/12/19 13:52:03;;;;;;;17.40;2.42;;;;;;;;;;5080221;28;20044;-76
2021/12/19 13:54:31;;;;;;;8.98;1.27;;;;;;;;;;5079446;28;20078;-74
2021/12/19 13:56:57;;;;;;;3.15;1.45;;;;;;;;;;5081594;28;20089;-75
2021/12/19 13:59:24;;;;;;;10.07;1.55;;;;;;;;;;5082194;28;20046;-75
2021/12/19 14:01:51;;;;;;;5.53;1.58;;;;;;;;;;5090996;28;20127;-75
2021/12/19 14:04:17;;;;;;;5.55;1.10;;;;;;;;;;5090849;28;20121;-75
2021/12/19 14:06:45;;;;;;;6.50;2.05;;;;;;;;;;5074697;28;20040;-75
2021/12/19 14:09:15;;;;;;;8.18;1.67;;;;;;;;;;5091105;28;20044;-75
2021/12/19 14:11:44;;;;;;;2.97;1.30;;;;;;;;;;5090593;28;20089;-74
2021/12/19 14:16:58;;;;;;;10.25;2.53;;;;;;;;;;5090294;28;20460;-73
2021/12/19 14:19:27;;;;;;;6.25;1.48;;;;;;;;;;5090279;28;20079;-75
2021/12/19 14:21:54;;;;;;;8.45;1.50;;;;;;;;;;5073699;28;20040;-72
2021/12/19 14:24:28;;;;;;;9.48;1.17;;;;;;;;;;5090556;28;20093;-73
2021/12/19 14:27:12;;;;;;;7.35;2.00;;;;;;;;;;5073282;28;20040;-74
2021/12/19 14:29:41;;;;;;;2.55;1.08;;;;;;;;;;5090298;28;20046;-72
2021/12/19 14:32:12;;;;;;;5.93;1.08;;;;;;;;;;5073429;28;20112;-73
2021/12/19 14:34:38;;;;;;;7.57;1.52;;;;;;;;;;5106232;28;20043;-74
2021/12/19 14:37:16;;;;;;;7.65;1.58;;;;;;;;;;5110494;28;20040;-72
2021/12/19 14:39:42;;;;;;;9.25;1.42;;;;;;;;;;5092898;28;20097;-75
2021/12/19 14:42:15;;;;;;;3.35;0.93;;;;;;;;;;5093277;28;20044;-72
2021/12/19 14:44:41;;;;;;;9.85;1.70;;;;;;;;;;5109921;28;20109;-73
2021/12/19 14:47:08;;;;;;;10.32;1.92;;;;;;;;;;5110423;28;20044;-74
2021/12/19 14:49:43;;;;;;;7.68;1.88;;;;;;;;;;5093059;28;20043;-73
2021/12/19 14:52:10;;;;;;;10.02;1.25;;;;;;;;;;5110910;28;20510;-74
2021/12/19 14:54:36;;;;;;;5.55;1.15;;;;;;;;;;5093372;28;20043;-74
2021/12/19 14:57:03;;;;;;;6.07;1.15;;;;;;;;;;5092584;28;20043;-73
2021/12/19 14:59:29;;;;;;;3.80;1.00;;;;;;;;;;5091858;28;20043;-76
2021/12/19 15:01:56;;;;;;;4.88;1.17;;;;;;;;;;5093469;28;20051;-74
2021/12/19 15:04:23;;;;;;;5.10;0.98;;;;;;;;;;5105238;28;20072;-74
2021/12/19 15:06:58;;;;;;;4.50;1.17;;;;;;;;;;5073038;28;20039;-73
2021/12/19 15:09:27;;;;;;;3.95;0.77;;;;;;;;;;5089296;28;20047;-73
2021/12/19 15:11:53;;;;;;;2.65;0.90;;;;;;;;;;5089776;28;20043;-73
2021/12/19 15:14:19;;;;;;;5.53;0.90;;;;;;;;;;5072494;28;20047;-75
2021/12/19 15:16:45;;;;;;;4.07;1.02;;;;;;;;;;5072116;28;20044;-73
2021/12/19 15:19:11;;;;;;;2.55;0.80;;;;;;;;;;5072425;28;20159;-74
2021/12/19 15:21:38;;;;;;;6.57;1.13;;;;;;;;;;5072110;28;20044;-73
2021/12/19 15:24:04;;;;;;;4.50;1.00;;;;;;;;;;5089096;28;20044;-75
2021/12/19 15:26:31;;;;;;;5.75;0.75;;;;;;;;;;5089542;28;20051;-73
2021/12/19 15:28:57;;;;;;;10.38;1.10;;;;;;;;;;5088946;28;20493;-75
2021/12/19 15:31:24;;;;;;;3.45;0.70;;;;;;;;;;5072050;28;20040;-73
2021/12/19 15:33:51;;;;;;;3.90;0.73;;;;;;;;;;5072486;28;20500;-75
2021/12/19 15:36:17;;;;;;;3.22;0.90;;;;;;;;;;5087523;28;20098;-72
2021/12/19 15:38:44;;;;;;;2.05;0.50;;;;;;;;;;5077402;28;20037;-75
2021/12/19 15:41:10;;;;;;;1.95;0.60;;;;;;;;;;5088454;28;20482;-74
2021/12/19 15:43:36;;;;;;;3.58;0.60;;;;;;;;;;5088193;28;20044;-73
2021/12/19 15:46:02;;;;;;;5.65;1.02;;;;;;;;;;5088428;28;20078;-74
2021/12/19 15:48:28;;;;;;;6.38;0.90;;;;;;;;;;5088686;28;20036;-73
2021/12/19 15:50:54;;;;;;;3.67;0.63;;;;;;;;;;5088883;28;20063;-74
2021/12/19 15:53:20;;;;;;;7.38;0.90;;;;;;;;;;5088524;28;20163;-72
2021/12/19 15:55:46;;;;;;;4.18;0.70;;;;;;;;;;5088134;28;20192;-73
2021/12/19 15:58:12;;;;;;;2.58;0.52;;;;;;;;;;5088841;28;20594;-72